createdAt,value
2018-10-19T00:01:29.907Z,26.70
2018-10-19T00:04:23.763Z,26.70
2018-10-19T00:07:17.177Z,26.70
2018-10-19T00:10:11.631Z,26.60
2018-10-19T00:13:05.564Z,26.60
2018-10-19T00:15:59.346Z,26.60
2018-10-19T00:18:53.606Z,26.60
2018-10-19T00:21:47.234Z,26.60
2018-10-19T00:24:40.248Z,26.50
2018-10-19T00:27:33.543Z,26.50
2018-10-19T00:30:26.855Z,26.50
2018-10-19T00:33:20.733Z,26.50
2018-10-19T00:36:14.133Z,26.50
2018-10-19T00:39:07.695Z,26.50
2018-10-19T00:42:01.017Z,26.50
2018-10-19T00:44:54.450Z,26.50
2018-10-19T00:47:47.775Z,26.50
2018-10-19T00:50:40.947Z,26.50
2018-10-19T00:53:34.655Z,26.50
2018-10-19T00:56:28.728Z,26.50
2018-10-19T00:59:22.275Z,26.50
2018-10-19T01:02:15.538Z,26.50
2018-10-19T01:05:08.997Z,26.50
2018-10-19T01:08:02.034Z,26.40
2018-10-19T01:10:56.102Z,26.50
2018-10-19T01:13:49.410Z,26.50
2018-10-19T01:16:42.778Z,26.50
2018-10-19T01:19:35.917Z,26.50
2018-10-19T01:22:29.439Z,26.50
2018-10-19T01:25:23.143Z,26.50
2018-10-19T01:28:17.179Z,26.50
2018-10-19T01:31:10.999Z,26.50
2018-10-19T01:34:07.476Z,26.50
2018-10-19T01:37:06.626Z,26.50
2018-10-19T01:40:00.031Z,26.50
2018-10-19T01:42:57.863Z,26.50
2018-10-19T01:46:13.853Z,26.50
2018-10-19T01:49:00.680Z,26.50
2018-10-19T01:51:57.994Z,26.50
2018-10-19T01:54:52.769Z,26.50
2018-10-19T01:57:46.892Z,26.50
2018-10-19T02:00:42.125Z,26.50
2018-10-19T02:03:37.179Z,26.40
2018-10-19T02:06:32.604Z,26.50
2018-10-19T02:09:29.076Z,26.40
2018-10-19T02:12:25.601Z,26.40
2018-10-19T02:15:21.831Z,26.40
2018-10-19T02:18:17.764Z,26.40
2018-10-19T02:21:14.431Z,26.50
2018-10-19T02:24:10.810Z,26.50
2018-10-19T02:27:07.508Z,26.50
2018-10-19T02:30:03.842Z,26.50
2018-10-19T02:32:59.963Z,26.50
2018-10-19T02:35:56.199Z,26.50
2018-10-19T02:38:52.745Z,26.50
2018-10-19T02:41:48.906Z,26.50
2018-10-19T02:44:45.516Z,26.50
2018-10-19T02:47:42.039Z,26.50
2018-10-19T02:50:38.870Z,26.50
2018-10-19T02:53:35.548Z,26.60
2018-10-19T02:56:31.860Z,26.60
2018-10-19T02:59:27.897Z,26.60
2018-10-19T03:02:27.430Z,26.60
2018-10-19T03:05:23.619Z,26.70
2018-10-19T03:08:20.043Z,26.70
2018-10-19T03:11:19.606Z,26.70
2018-10-19T03:14:15.846Z,26.70
2018-10-19T03:17:12.836Z,26.80
2018-10-19T03:20:10.043Z,26.80
2018-10-19T03:23:06.608Z,26.80
2018-10-19T03:26:02.756Z,26.80
2018-10-19T03:28:59.519Z,26.90
2018-10-19T03:31:55.772Z,26.90
2018-10-19T03:34:52.506Z,27.00
2018-10-19T03:37:48.682Z,27.00
2018-10-19T03:40:45.661Z,27.00
2018-10-19T03:43:41.723Z,27.10
2018-10-19T03:46:38.543Z,27.10
2018-10-19T03:49:34.829Z,27.20
2018-10-19T03:52:31.620Z,27.20
2018-10-19T03:55:27.856Z,27.20
2018-10-19T03:58:24.810Z,27.30
2018-10-19T04:01:21.081Z,27.30
2018-10-19T04:04:17.502Z,27.40
2018-10-19T04:07:13.778Z,27.40
2018-10-19T04:10:11.525Z,27.40
2018-10-19T04:13:06.925Z,27.50
2018-10-19T04:16:02.743Z,27.50
2018-10-19T04:18:59.266Z,27.60
2018-10-19T04:21:53.441Z,27.60
2018-10-19T04:24:49.355Z,27.70
2018-10-19T04:27:43.411Z,27.70
2018-10-19T04:30:38.083Z,27.70
2018-10-19T04:33:31.781Z,27.80
2018-10-19T04:36:24.829Z,27.80
2018-10-19T04:39:18.163Z,27.90
2018-10-19T04:42:11.509Z,27.90
2018-10-19T04:45:04.728Z,28.00
2018-10-19T04:47:58.165Z,28.00
2018-10-19T04:50:51.606Z,28.00
2018-10-19T04:53:44.887Z,28.10
2018-10-19T04:56:38.751Z,28.20
2018-10-19T04:59:32.643Z,28.20
2018-10-19T05:02:26.116Z,28.20
2018-10-19T05:05:19.746Z,28.30
2018-10-19T05:08:12.668Z,28.30
2018-10-19T05:11:06.446Z,28.40
2018-10-19T05:14:00.551Z,28.40
2018-10-19T05:16:54.141Z,28.50
2018-10-19T05:19:47.999Z,28.60
2018-10-19T05:22:45.138Z,28.70
2018-10-19T05:25:38.439Z,28.80
2018-10-19T05:28:32.376Z,28.80
2018-10-19T05:31:28.302Z,28.90
2018-10-19T05:34:23.404Z,29.00
2018-10-19T05:37:20.030Z,29.00
2018-10-19T05:40:15.855Z,29.10
2018-10-19T05:43:10.295Z,29.20
2018-10-19T05:46:04.767Z,29.20
2018-10-19T05:48:59.782Z,29.30
2018-10-19T05:51:54.216Z,29.30
2018-10-19T05:54:48.780Z,29.40
2018-10-19T05:57:44.337Z,29.50
2018-10-19T06:00:42.456Z,29.50
2018-10-19T06:03:37.669Z,29.60
2018-10-19T06:06:32.894Z,29.60
2018-10-19T06:09:27.664Z,29.70
2018-10-19T06:12:23.847Z,29.70
2018-10-19T06:15:18.739Z,29.80
2018-10-19T06:18:13.992Z,29.80
2018-10-19T06:21:09.258Z,29.80
2018-10-19T06:24:05.510Z,29.90
2018-10-19T06:26:55.819Z,29.90
2018-10-19T06:29:49.408Z,30.00
2018-10-19T06:32:42.861Z,30.10
2018-10-19T06:35:36.517Z,30.10
2018-10-19T06:38:31.277Z,30.20
2018-10-19T06:41:26.996Z,30.20
2018-10-19T06:44:22.157Z,30.20
2018-10-19T06:47:15.944Z,30.30
2018-10-19T06:50:13.255Z,30.30
2018-10-19T06:53:08.456Z,30.40
2018-10-19T06:56:04.151Z,30.40
2018-10-19T06:58:59.551Z,30.40
2018-10-19T07:01:55.797Z,30.50
2018-10-19T07:04:51.243Z,30.50
2018-10-19T07:07:46.375Z,30.60
2018-10-19T07:10:41.714Z,30.60
2018-10-19T07:13:37.666Z,30.70
2018-10-19T07:16:32.885Z,30.70
2018-10-19T07:19:28.677Z,30.80
2018-10-19T07:22:23.736Z,30.90
2018-10-19T07:25:19.842Z,31.00
2018-10-19T07:28:13.880Z,31.00
2018-10-19T07:31:09.744Z,31.00
2018-10-19T07:34:05.744Z,31.00
2018-10-19T07:37:01.102Z,31.10
2018-10-19T07:39:56.363Z,31.10
2018-10-19T07:42:51.861Z,31.10
2018-10-19T07:45:47.466Z,31.10
2018-10-19T07:48:42.540Z,31.10
2018-10-19T07:51:55.933Z,31.20
2018-10-19T07:54:51.830Z,31.20
2018-10-19T07:57:47.031Z,31.20
2018-10-19T08:00:40.302Z,31.20
2018-10-19T08:03:36.775Z,31.20
2018-10-19T08:06:31.099Z,31.30
2018-10-19T08:09:30.172Z,31.30
2018-10-19T08:12:21.119Z,31.30
2018-10-19T08:15:16.756Z,31.30
2018-10-19T08:18:12.260Z,31.30
2018-10-19T08:21:07.494Z,31.30
2018-10-19T08:24:02.860Z,31.30
2018-10-19T08:26:57.886Z,31.30
2018-10-19T08:29:52.605Z,31.30
2018-10-19T08:32:47.920Z,31.30
2018-10-19T08:35:44.963Z,31.20
2018-10-19T08:38:40.342Z,31.20
2018-10-19T08:41:35.952Z,31.20
2018-10-19T08:44:30.965Z,31.20
2018-10-19T08:47:25.960Z,31.20
2018-10-19T08:50:21.105Z,31.20
2018-10-19T08:53:16.167Z,31.20
2018-10-19T08:56:11.649Z,31.20
2018-10-19T08:59:06.869Z,31.10
2018-10-19T09:02:02.309Z,31.10
2018-10-19T09:04:58.479Z,31.10
2018-10-19T09:07:53.058Z,31.00
2018-10-19T09:13:42.630Z,30.90
2018-10-19T09:16:38.344Z,30.90
2018-10-19T09:19:32.742Z,30.80
2018-10-19T09:22:27.629Z,30.80
2018-10-19T09:25:21.836Z,30.70
2018-10-19T09:28:16.970Z,30.70
2018-10-19T09:31:11.242Z,30.70
2018-10-19T09:34:06.775Z,30.70
2018-10-19T09:37:01.825Z,30.70
2018-10-19T09:39:57.482Z,30.70
2018-10-19T09:42:52.738Z,30.70
2018-10-19T09:45:50.732Z,30.70
2018-10-19T09:48:45.302Z,30.80
2018-10-19T09:51:41.325Z,30.80
2018-10-19T09:54:36.120Z,30.80
2018-10-19T09:57:31.496Z,30.90
2018-10-19T10:00:45.690Z,30.90
2018-10-19T10:03:40.702Z,30.90
2018-10-19T10:06:34.858Z,31.00
2018-10-19T10:09:30.182Z,31.00
2018-10-19T10:12:26.091Z,31.00
2018-10-19T10:15:24.311Z,31.00
2018-10-19T10:18:19.575Z,31.10
2018-10-19T10:21:15.692Z,31.10
2018-10-19T10:24:11.177Z,31.10
2018-10-19T10:27:05.232Z,31.10
2018-10-19T10:29:59.129Z,31.10
2018-10-19T10:32:52.647Z,31.20
2018-10-19T10:35:46.294Z,31.20
2018-10-19T10:38:40.432Z,31.20
2018-10-19T10:41:35.989Z,31.20
2018-10-19T10:44:29.749Z,31.20
2018-10-19T10:47:23.376Z,31.20
2018-10-19T10:50:17.688Z,31.20
2018-10-19T10:53:11.754Z,31.20
2018-10-19T10:56:05.489Z,31.20
2018-10-19T10:58:59.717Z,31.20
2018-10-19T11:01:53.693Z,31.20
2018-10-19T11:04:46.801Z,31.20
2018-10-19T11:07:44.430Z,31.20
2018-10-19T11:10:39.227Z,31.20
2018-10-19T11:13:33.946Z,31.20
2018-10-19T11:16:28.538Z,31.10
2018-10-19T11:19:23.956Z,31.10
2018-10-19T11:22:21.680Z,31.10
2018-10-19T11:25:17.293Z,31.10
2018-10-19T11:28:12.582Z,31.10
2018-10-19T11:31:08.085Z,31.10
2018-10-19T11:34:03.894Z,31.00
2018-10-19T11:36:59.800Z,31.10
2018-10-19T11:40:35.130Z,31.00
2018-10-19T11:43:30.251Z,31.00
2018-10-19T11:46:25.760Z,31.00
2018-10-19T11:49:19.715Z,31.00
2018-10-19T11:52:15.341Z,30.90
2018-10-19T11:55:11.058Z,30.90
2018-10-19T11:58:07.895Z,30.90
2018-10-19T12:01:01.298Z,30.90
2018-10-19T12:03:55.388Z,30.80
2018-10-19T12:06:49.542Z,30.80
2018-10-19T12:09:45.953Z,30.80
2018-10-19T12:12:40.612Z,30.70
2018-10-19T12:15:34.215Z,30.70
2018-10-19T12:18:27.993Z,30.70
2018-10-19T12:21:21.813Z,30.70
2018-10-19T12:24:15.118Z,30.60
2018-10-19T12:27:09.910Z,30.70
2018-10-19T12:30:03.604Z,30.60
2018-10-19T12:32:57.414Z,30.60
2018-10-19T12:35:51.007Z,30.60
2018-10-19T12:38:44.095Z,30.50
2018-10-19T12:41:37.995Z,30.50
2018-10-19T12:44:31.314Z,30.50
2018-10-19T12:47:42.182Z,30.50
2018-10-19T12:50:37.461Z,30.50
2018-10-19T12:53:32.479Z,30.50
2018-10-19T12:56:27.669Z,30.50
2018-10-19T12:59:23.006Z,30.40
2018-10-19T13:02:18.401Z,30.50
2018-10-19T13:05:13.439Z,30.40
2018-10-19T13:08:09.458Z,30.40
2018-10-19T13:11:04.492Z,30.40
2018-10-19T13:14:01.080Z,30.40
2018-10-19T13:16:56.525Z,30.40
2018-10-19T13:19:52.188Z,30.40
2018-10-19T13:22:47.334Z,30.40
2018-10-19T13:25:42.102Z,30.40
2018-10-19T13:28:37.324Z,30.40
2018-10-19T13:31:32.881Z,30.30
2018-10-19T13:34:28.349Z,30.30
2018-10-19T13:37:23.563Z,30.30
2018-10-19T13:40:18.754Z,30.30
2018-10-19T13:43:14.751Z,30.30
2018-10-19T13:46:11.005Z,30.20
2018-10-19T13:49:06.164Z,30.20
2018-10-19T13:52:00.757Z,30.20
2018-10-19T13:54:55.062Z,30.20
2018-10-19T13:57:49.431Z,30.20
2018-10-19T14:00:44.377Z,30.20
2018-10-19T14:03:39.959Z,30.20
2018-10-19T14:06:35.146Z,30.10
2018-10-19T14:09:31.278Z,30.10
2018-10-19T14:12:26.680Z,30.10
2018-10-19T14:15:21.606Z,30.10
2018-10-19T14:18:17.383Z,30.10
2018-10-19T14:21:12.421Z,30.10
2018-10-19T14:24:07.764Z,30.10
2018-10-19T14:27:03.010Z,30.10
2018-10-19T14:29:57.748Z,30.10
2018-10-19T14:32:53.473Z,30.00
2018-10-19T14:35:48.577Z,30.00
2018-10-19T14:38:43.747Z,30.00
2018-10-19T14:41:38.988Z,30.00
2018-10-19T14:44:34.196Z,30.00
2018-10-19T14:47:29.069Z,30.00
2018-10-19T14:50:24.111Z,30.00
2018-10-19T14:53:22.416Z,29.90
2018-10-19T14:56:18.023Z,29.90
2018-10-19T14:59:13.553Z,29.90
2018-10-19T15:02:12.254Z,29.90
2018-10-19T15:05:04.424Z,29.80
2018-10-19T15:10:55.246Z,29.80
2018-10-19T15:13:50.133Z,29.80
2018-10-19T15:16:43.910Z,29.80
2018-10-19T15:19:37.234Z,29.80
2018-10-19T15:22:30.631Z,29.80
2018-10-19T15:25:24.297Z,29.80
2018-10-19T15:28:21.800Z,29.80
2018-10-19T15:31:17.137Z,29.80
2018-10-19T15:34:12.347Z,29.80
2018-10-19T15:37:07.152Z,29.80
2018-10-19T15:40:02.857Z,29.70
2018-10-19T15:43:02.313Z,29.70
2018-10-19T15:45:57.884Z,29.70
2018-10-19T15:48:53.290Z,29.70
2018-10-19T15:51:47.830Z,29.70
2018-10-19T15:54:46.180Z,29.70
2018-10-19T15:57:41.552Z,29.70
2018-10-19T16:00:37.938Z,29.70
2018-10-19T16:03:33.689Z,29.70
2018-10-19T16:06:31.982Z,29.70
2018-10-19T16:09:23.717Z,29.70
2018-10-19T16:12:18.208Z,29.70
2018-10-19T16:15:14.444Z,29.70
2018-10-19T16:18:09.546Z,29.60
2018-10-19T16:21:04.887Z,29.60
2018-10-19T16:23:58.897Z,29.60
2018-10-19T16:26:54.151Z,29.60
2018-10-19T16:29:49.936Z,29.60
2018-10-19T16:32:46.256Z,29.60
2018-10-19T16:35:39.860Z,29.50
2018-10-19T16:38:37.174Z,29.50
2018-10-19T16:41:31.658Z,29.50
2018-10-19T16:44:26.344Z,29.50
2018-10-19T16:47:21.330Z,29.50
2018-10-19T16:50:17.050Z,29.50
2018-10-19T16:53:11.864Z,29.50
2018-10-19T16:56:07.199Z,29.50
2018-10-19T16:59:02.610Z,29.50
2018-10-19T17:01:58.941Z,29.50
2018-10-19T17:04:54.898Z,29.40
2018-10-19T17:07:50.250Z,29.40
2018-10-19T17:10:45.442Z,29.40
2018-10-19T17:13:40.294Z,29.40
2018-10-19T17:16:35.870Z,29.30
2018-10-19T17:19:30.846Z,29.30
2018-10-19T17:22:26.562Z,29.30
2018-10-19T17:25:22.202Z,29.30
2018-10-19T17:28:17.393Z,29.30
2018-10-19T17:31:12.018Z,29.20
2018-10-19T17:34:08.615Z,29.20
2018-10-19T17:37:03.921Z,29.20
2018-10-19T17:39:57.924Z,29.20
2018-10-19T17:42:55.846Z,29.20
2018-10-19T17:45:50.942Z,29.10
2018-10-19T17:48:46.304Z,29.10
2018-10-19T17:51:41.582Z,29.10
2018-10-19T17:54:36.781Z,29.10
2018-10-19T17:57:32.606Z,29.10
2018-10-19T18:00:27.990Z,29.00
2018-10-19T18:03:23.088Z,29.00
2018-10-19T18:06:18.401Z,29.00
2018-10-19T18:09:17.361Z,29.00
2018-10-19T18:12:13.560Z,29.00
2018-10-19T18:15:08.399Z,28.90
2018-10-19T18:18:02.859Z,28.90
2018-10-19T18:20:57.178Z,28.90
2018-10-19T18:23:52.205Z,28.90
2018-10-19T18:26:47.990Z,28.90
2018-10-19T18:29:42.552Z,28.80
2018-10-19T18:32:37.979Z,28.80
2018-10-19T18:35:33.338Z,28.80
2018-10-19T18:38:28.929Z,28.80
2018-10-19T18:41:27.638Z,28.80
2018-10-19T18:44:22.782Z,28.70
2018-10-19T18:47:18.020Z,28.70
2018-10-19T18:50:19.644Z,28.70
2018-10-19T18:53:14.903Z,28.70
2018-10-19T18:56:10.061Z,28.70
2018-10-19T18:59:05.916Z,28.70
2018-10-19T19:02:01.378Z,28.60
2018-10-19T19:04:56.540Z,28.60
2018-10-19T19:07:51.578Z,28.60
2018-10-19T19:10:46.496Z,28.60
2018-10-19T19:13:52.198Z,28.60
2018-10-19T19:16:47.707Z,28.60
2018-10-19T19:19:42.753Z,28.60
2018-10-19T19:22:41.038Z,28.60
2018-10-19T19:25:52.835Z,28.50
2018-10-19T19:28:48.657Z,28.60
2018-10-19T19:31:43.974Z,28.50
2018-10-19T19:34:39.499Z,28.60
2018-10-19T19:37:34.429Z,28.60
2018-10-19T19:40:29.827Z,28.50
2018-10-19T19:43:25.478Z,28.60
2018-10-19T19:46:20.113Z,28.50
2018-10-19T19:49:31.576Z,28.50
2018-10-19T19:52:25.805Z,28.50
2018-10-19T19:55:20.265Z,28.50
2018-10-19T19:58:15.059Z,28.50
2018-10-19T20:01:10.469Z,28.50
2018-10-19T20:04:04.742Z,28.40
2018-10-19T20:06:59.310Z,28.40
2018-10-19T20:09:54.404Z,28.40
2018-10-19T20:12:48.223Z,28.40
2018-10-19T20:15:43.642Z,28.40
2018-10-19T20:18:39.464Z,28.40
2018-10-19T20:21:34.393Z,28.30
2018-10-19T20:24:28.915Z,28.30
2018-10-19T20:27:22.918Z,28.30
2018-10-19T20:30:17.675Z,28.30
2018-10-19T20:33:11.417Z,28.30
2018-10-19T20:36:05.919Z,28.30
2018-10-19T20:39:00.264Z,28.20
2018-10-19T20:41:54.919Z,28.20
2018-10-19T20:44:48.570Z,28.20
2018-10-19T20:47:44.136Z,28.20
2018-10-19T20:50:38.969Z,28.20
2018-10-19T20:53:37.215Z,28.20
2018-10-19T20:56:27.900Z,28.10
2018-10-19T20:59:23.343Z,28.10
2018-10-19T21:02:18.635Z,28.10
2018-10-19T21:05:15.129Z,28.10
2018-10-19T21:08:10.203Z,28.10
2018-10-19T21:11:04.619Z,28.00
2018-10-19T21:14:00.936Z,28.00
2018-10-19T21:16:56.124Z,28.00
2018-10-19T21:19:50.104Z,28.00
2018-10-19T21:22:44.954Z,28.00
2018-10-19T21:25:40.447Z,28.00
2018-10-19T21:28:35.595Z,28.00
2018-10-19T21:31:30.702Z,28.00
2018-10-19T21:34:25.944Z,28.00
2018-10-19T21:37:19.997Z,28.00
2018-10-19T21:40:18.518Z,28.00
2018-10-19T21:43:09.368Z,28.00
2018-10-19T21:46:03.232Z,28.00
2018-10-19T21:48:57.145Z,28.00
2018-10-19T21:51:51.856Z,28.00
2018-10-19T21:54:45.164Z,28.00
2018-10-19T21:57:40.055Z,28.00
2018-10-19T22:00:38.268Z,28.00
2018-10-19T22:03:34.002Z,28.00
2018-10-19T22:06:28.360Z,28.00
2018-10-19T22:09:26.285Z,27.90
2018-10-19T22:12:24.242Z,27.90
2018-10-19T22:15:18.996Z,27.90
2018-10-19T22:18:13.240Z,27.90
2018-10-19T22:21:08.925Z,27.90
2018-10-19T22:24:03.539Z,27.90
2018-10-19T22:26:57.712Z,27.90
2018-10-19T22:29:52.287Z,27.90
2018-10-19T22:32:47.730Z,27.90
2018-10-19T22:35:42.954Z,27.90
2018-10-19T22:38:38.114Z,27.90
2018-10-19T22:41:31.583Z,27.80
2018-10-19T22:44:25.575Z,27.80
2018-10-19T22:47:20.244Z,27.80
2018-10-19T22:50:14.173Z,27.80
2018-10-19T22:53:11.971Z,27.80
2018-10-19T22:56:07.828Z,27.80
2018-10-19T22:59:02.868Z,27.80
2018-10-19T23:01:58.426Z,27.80
2018-10-19T23:04:53.493Z,27.80
2018-10-19T23:07:48.446Z,27.80
2018-10-19T23:10:43.196Z,27.80
2018-10-19T23:13:37.455Z,27.80
2018-10-19T23:16:33.207Z,27.80
2018-10-19T23:19:28.318Z,27.80
2018-10-19T23:22:27.339Z,27.70
2018-10-19T23:25:22.049Z,27.70
2018-10-19T23:28:16.204Z,27.70
2018-10-19T23:31:11.186Z,27.70
2018-10-19T23:34:05.701Z,27.70
2018-10-19T23:36:59.953Z,27.70
2018-10-19T23:39:54.454Z,27.70
2018-10-19T23:42:48.061Z,27.70
2018-10-19T23:45:42.064Z,27.70
2018-10-19T23:48:35.615Z,27.70
2018-10-19T23:51:29.421Z,27.60
2018-10-19T23:54:23.606Z,27.70
2018-10-19T23:57:16.686Z,27.60
